Legenda:
Majhna (0-210)
Zelo visoka (490 - 630)

Srednja (210 - 350)
Ekstremna (630+)

Visoka (350 - 490)


 
188.23
Date Temp. (°C) Wind Speed (km/h) Rain (mm) RH% Days Since Rain pwsFWI
Napovedi, vključno z današnjim dnem, so nad rdečo črto!
04/06/20 19,00 12,00 7,70 0,71 0 117,52
03/06/20 21,00 11,00 0,00 0,55 1 146,94
02/06/20 20,00 6,00 0,80 0,51 0 150,51
01/06/20 23,00 12,00 0,00 0,32 1 176,17
31/05/20 16,00 7,00 0,20 0,53 0 159,99
30/05/20 15,80 9,20 0,00 0,50 6 188,23
29/05/20 18,10 14,70 0,00 0,45 5 136,58
28/05/20 19,80 12,40 0,00 0,49 4 136,24
27/05/20 21,20 11,40 0,00 0,33 3 131,78
26/05/20 18,90 11,50 0,00 0,39 2 127,29
25/05/20 19,30 15,00 0,00 0,49 1 139,19
24/05/20 18,60 14,40 19,20 0,40 0 72,87
23/05/20 22,40 13,10 6,20 0,54 0 103,23
22/05/20 20,60 10,40 0,00 0,49 3 95,38
21/05/20 20,40 14,30 0,00 0,49 2 68,70
20/05/20 19,60 19,10 0,00 0,50 1 76,29
19/05/20 17,00 21,60 11,90 0,58 0 82,12
18/05/20 18,80 15,00 0,00 0,51 1 32,82
17/05/20 18,30 13,60 2,60 0,65 0 48,59
16/05/20 12,80 18,60 2,10 0,66 0 9,33
15/05/20 17,60 24,40 14,50 0,77 0 48,68
14/05/20 22,70 16,70 0,50 0,58 0 135,99
13/05/20 15,40 12,20 8,80 0,82 0 149,44
12/05/20 11,80 28,40 27,40 0,82 0 186,65
11/05/20 14,40 31,20 36,80 0,76 0 218,59
10/05/20 20,80 16,80 0,00 0,50 7 233,65
09/05/20 21,80 18,60 0,00 0,42 6 230,30
08/05/20 21,70 16,20 0,00 0,41 5 173,09
07/05/20 19,90 13,50 0,00 0,44 4 122,59
06/05/20 15,20 15,30 0,00 0,46 3 86,54
sucontract_SNC